createdAt,value
2023-03-12T10:01:34.496Z,7.15
2023-03-12T10:04:21.680Z,13.23
2023-03-12T10:07:00.330Z,8.57
2023-03-12T10:09:55.446Z,6.18
2023-03-12T10:12:55.133Z,5.72
2023-03-12T10:15:44.622Z,7.63
2023-03-12T10:18:54.297Z,5.93
2023-03-12T10:21:36.985Z,6.50
2023-03-12T10:24:25.502Z,5.18
2023-03-12T10:26:56.192Z,6.53
2023-03-12T10:29:33.141Z,5.68
2023-03-12T10:32:07.956Z,5.65
2023-03-12T10:34:46.362Z,4.40
2023-03-12T10:37:22.307Z,6.60
2023-03-12T10:42:18.602Z,9.75
2023-03-12T10:44:48.685Z,9.20
2023-03-12T10:47:39.088Z,6.55
2023-03-12T10:50:34.348Z,7.97
2023-03-12T10:53:22.466Z,5.95
2023-03-12T10:56:12.021Z,5.03
2023-03-12T10:58:45.762Z,6.10
2023-03-12T11:01:23.195Z,5.20
2023-03-12T11:03:51.551Z,5.20
2023-03-12T11:06:26.566Z,6.32
2023-03-12T11:09:18.392Z,5.72
2023-03-12T11:12:00.264Z,7.65
2023-03-12T11:14:34.469Z,5.28
2023-03-12T11:17:21.209Z,5.45
2023-03-12T11:19:48.153Z,6.55
2023-03-12T11:22:26.258Z,3.88
2023-03-12T11:24:59.013Z,4.18
2023-03-12T11:27:46.377Z,4.43
2023-03-12T11:30:17.643Z,4.78
2023-03-12T11:36:00.989Z,3.45
2023-03-12T11:38:41.211Z,5.10
2023-03-12T11:41:16.982Z,3.92
2023-03-12T11:46:30.416Z,3.70
2023-03-12T11:49:34.748Z,2.30
2023-03-12T11:53:05.518Z,3.10
2023-03-12T11:55:57.217Z,3.88
2023-03-12T11:58:23.680Z,2.55
2023-03-12T12:00:59.226Z,2.75
2023-03-12T12:03:56.601Z,2.28
2023-03-12T12:06:42.408Z,3.20
2023-03-12T12:09:12.067Z,3.05
2023-03-12T12:11:56.198Z,2.00
2023-03-12T12:14:46.483Z,1.92
2023-03-12T12:17:44.291Z,2.28
2023-03-12T12:20:26.299Z,2.53
2023-03-12T12:23:24.732Z,2.55
2023-03-12T12:26:04.275Z,3.17
2023-03-12T12:29:02.371Z,2.28
2023-03-12T12:31:38.207Z,2.65
2023-03-12T12:34:29.418Z,2.72
2023-03-12T12:37:12.902Z,2.42
2023-03-12T12:39:55.326Z,2.97
2023-03-12T12:42:26.382Z,2.97
2023-03-12T12:44:57.342Z,2.65
2023-03-12T12:47:42.079Z,3.42
2023-03-12T12:50:18.172Z,2.30
2023-03-12T12:52:49.820Z,2.60
2023-03-12T12:55:29.583Z,2.65
2023-03-12T12:58:14.820Z,2.97
2023-03-12T13:00:49.448Z,2.65
2023-03-12T13:03:22.325Z,2.20
2023-03-12T13:05:58.458Z,3.83
2023-03-12T13:08:40.405Z,2.67
2023-03-12T13:11:24.580Z,3.75
2023-03-12T13:14:04.747Z,2.53
2023-03-12T13:16:39.796Z,2.90
2023-03-12T13:19:24.041Z,3.28
2023-03-12T13:22:03.573Z,2.30
2023-03-12T13:24:46.737Z,3.30
2023-03-12T13:27:28.744Z,2.65
2023-03-12T13:29:55.572Z,2.60
2023-03-12T13:32:34.537Z,2.65
2023-03-12T13:35:16.420Z,2.78
2023-03-12T13:38:00.760Z,3.03
2023-03-12T13:40:53.016Z,3.05
2023-03-12T13:43:39.846Z,2.78
2023-03-12T13:46:07.664Z,2.33
2023-03-12T13:48:36.619Z,2.58
2023-03-12T13:51:15.895Z,1.95
2023-03-12T13:53:47.235Z,2.17
2023-03-12T13:56:16.900Z,2.47
2023-03-12T13:59:05.726Z,1.98
2023-03-12T14:01:36.978Z,2.15
2023-03-12T14:04:13.218Z,2.28
2023-03-12T14:07:07.636Z,1.73
2023-03-12T14:10:03.141Z,2.25
2023-03-12T14:12:46.124Z,2.10
2023-03-12T14:15:19.948Z,2.75
2023-03-12T14:17:51.583Z,3.03
2023-03-12T14:20:20.928Z,2.13
2023-03-12T14:22:55.131Z,2.70
2023-03-12T14:25:36.550Z,2.97
2023-03-12T14:28:11.017Z,2.78
2023-03-12T14:31:03.205Z,2.80
2023-03-12T14:33:59.114Z,2.90
2023-03-12T14:36:42.630Z,2.33
2023-03-12T14:39:36.538Z,3.38
2023-03-12T14:42:05.812Z,2.45
2023-03-12T14:44:35.130Z,2.67
2023-03-12T14:47:07.294Z,2.63
2023-03-12T14:49:40.452Z,2.75
2023-03-12T14:52:07.105Z,2.75
2023-03-12T14:54:33.786Z,2.50
2023-03-12T14:57:00.285Z,2.45
2023-03-12T14:59:29.760Z,1.75
2023-03-12T15:02:00.907Z,1.83
2023-03-12T15:04:29.221Z,1.88
2023-03-12T15:06:57.951Z,3.65
2023-03-12T15:09:30.300Z,3.10
2023-03-12T15:11:58.972Z,1.83
2023-03-12T15:14:28.649Z,2.83
2023-03-12T15:16:56.914Z,2.35
2023-03-12T15:19:31.215Z,2.40
2023-03-12T15:21:58.123Z,2.33
2023-03-12T15:24:25.083Z,2.10
2023-03-12T15:26:51.652Z,2.20
2023-03-12T15:29:29.188Z,2.22
2023-03-12T15:31:59.263Z,3.33
2023-03-12T15:34:34.916Z,2.70
2023-03-12T15:39:32.700Z,2.53
2023-03-12T15:42:14.993Z,1.83
2023-03-12T15:44:50.776Z,2.50
2023-03-12T15:49:53.021Z,2.20
2023-03-12T15:52:19.724Z,2.80
2023-03-12T15:55:07.177Z,2.10
2023-03-12T15:57:34.907Z,1.55
2023-03-12T16:00:10.693Z,2.72
2023-03-12T16:05:07.997Z,2.70
2023-03-12T16:10:01.598Z,1.70
2023-03-12T16:12:28.376Z,3.00
2023-03-12T16:14:55.884Z,1.60
2023-03-12T16:17:23.528Z,3.38
2023-03-12T16:19:50.233Z,2.08
2023-03-12T16:22:16.827Z,2.53
2023-03-12T16:24:43.375Z,1.83
2023-03-12T16:27:18.089Z,2.38
2023-03-12T16:29:47.364Z,2.58
2023-03-12T16:32:16.304Z,3.00
2023-03-12T16:34:44.702Z,2.10
2023-03-12T16:37:12.363Z,2.30
2023-03-12T16:39:39.176Z,2.17
2023-03-12T16:42:20.368Z,1.90
2023-03-12T16:44:46.936Z,2.80
2023-03-12T16:47:14.248Z,2.53
2023-03-12T16:49:41.001Z,2.30
2023-03-12T16:52:22.942Z,2.35
2023-03-12T16:54:52.767Z,2.50
2023-03-12T16:57:31.730Z,3.25
2023-03-12T16:59:59.760Z,1.98
2023-03-12T17:02:26.498Z,2.55
2023-03-12T17:04:53.099Z,2.20
2023-03-12T17:07:19.594Z,3.40
2023-03-12T17:09:46.128Z,2.33
2023-03-12T17:12:34.443Z,2.53
2023-03-12T17:15:02.875Z,2.25
2023-03-12T17:17:29.372Z,2.35
2023-03-12T17:19:55.867Z,2.33
2023-03-12T17:22:22.389Z,2.13
2023-03-12T17:24:48.922Z,2.30
2023-03-12T17:27:15.613Z,1.70
2023-03-12T17:29:42.152Z,2.60
2023-03-12T17:32:08.650Z,2.10
2023-03-12T17:34:35.263Z,2.35
2023-03-12T17:37:02.407Z,2.13
2023-03-12T17:39:29.027Z,2.13
2023-03-12T17:41:58.760Z,2.97
2023-03-12T17:47:02.070Z,2.20
2023-03-12T17:49:29.015Z,2.35
2023-03-12T17:51:55.572Z,2.33
2023-03-12T17:54:22.910Z,2.13
2023-03-12T17:56:49.875Z,2.30
2023-03-12T17:59:20.311Z,2.47
2023-03-12T18:01:49.926Z,2.65
2023-03-12T18:04:17.467Z,2.35
2023-03-12T18:06:47.511Z,5.15
2023-03-12T18:09:14.499Z,2.38
2023-03-12T18:11:44.088Z,2.15
2023-03-12T18:14:11.553Z,2.60
2023-03-12T18:16:38.264Z,2.40
2023-03-12T18:19:06.196Z,2.55
2023-03-12T18:21:36.457Z,2.90
2023-03-12T18:24:13.381Z,2.38
2023-03-12T18:26:43.846Z,2.90
2023-03-12T18:29:10.956Z,2.60
2023-03-12T18:31:37.653Z,2.25
2023-03-12T18:34:09.162Z,2.90
2023-03-12T18:36:49.379Z,2.45
2023-03-12T18:39:18.850Z,3.15
2023-03-12T18:41:45.434Z,2.78
2023-03-12T18:44:15.862Z,2.70
2023-03-12T18:46:51.029Z,3.03
2023-03-12T18:49:18.408Z,2.35
2023-03-12T18:51:45.026Z,3.05
2023-03-12T18:54:15.120Z,2.95
2023-03-12T18:56:42.736Z,3.00
2023-03-12T18:59:21.455Z,3.03
2023-03-12T19:01:48.102Z,3.13
2023-03-12T19:04:18.463Z,2.55
2023-03-12T19:06:51.494Z,3.13
2023-03-12T19:09:21.082Z,2.45
2023-03-12T19:11:58.168Z,1.95
2023-03-12T19:14:31.967Z,3.35
2023-03-12T19:16:58.786Z,3.28
2023-03-12T19:19:25.370Z,2.67
2023-03-12T19:21:51.926Z,3.42
2023-03-12T19:24:18.471Z,3.00
2023-03-12T19:26:45.024Z,2.15
2023-03-12T19:29:11.580Z,2.47
2023-03-12T19:31:38.150Z,2.50
2023-03-12T19:34:04.752Z,3.30
2023-03-12T19:36:31.349Z,2.38
2023-03-12T19:38:57.980Z,2.03
2023-03-12T19:41:24.616Z,2.50
2023-03-12T19:43:51.192Z,2.33
2023-03-12T19:46:20.303Z,2.50
2023-03-12T19:48:46.894Z,1.98
2023-03-12T19:51:13.498Z,2.45
2023-03-12T19:53:40.021Z,2.65
2023-03-12T19:56:09.592Z,3.33
2023-03-12T19:58:36.574Z,3.33
2023-03-12T20:01:03.808Z,2.15
2023-03-12T20:03:30.913Z,3.00
2023-03-12T20:05:57.445Z,2.20
2023-03-12T20:08:24.147Z,2.55
2023-03-12T20:10:50.640Z,2.58
2023-03-12T20:13:17.290Z,2.92
2023-03-12T20:15:45.215Z,2.47
2023-03-12T20:18:11.988Z,2.63
2023-03-12T20:20:38.575Z,2.25
2023-03-12T20:23:05.159Z,2.88
2023-03-12T20:25:31.877Z,2.03
2023-03-12T20:27:58.400Z,2.90
2023-03-12T20:33:22.323Z,1.92
2023-03-12T20:35:50.442Z,2.45
2023-03-12T20:38:17.240Z,2.25
2023-03-12T20:40:46.599Z,2.67
2023-03-12T20:43:13.132Z,2.05
2023-03-12T20:45:39.704Z,2.97
2023-03-12T20:48:06.495Z,2.22
2023-03-12T20:50:33.109Z,2.30
2023-03-12T20:52:59.619Z,2.55
2023-03-12T20:55:26.138Z,2.45
2023-03-12T20:57:52.721Z,3.30
2023-03-12T21:00:20.349Z,1.95
2023-03-12T21:02:47.255Z,2.65
2023-03-12T21:05:13.977Z,1.38
2023-03-12T21:07:43.153Z,2.05
2023-03-12T21:10:10.547Z,1.90
2023-03-12T21:12:37.093Z,1.88
2023-03-12T21:15:04.010Z,1.95
2023-03-12T21:17:32.614Z,2.13
2023-03-12T21:19:59.161Z,2.17
2023-03-12T21:22:29.384Z,2.25
2023-03-12T21:24:56.153Z,2.60
2023-03-12T21:27:22.692Z,2.38
2023-03-12T21:29:49.269Z,2.20
2023-03-12T21:32:15.843Z,2.17
2023-03-12T21:34:42.341Z,2.25
2023-03-12T21:37:08.990Z,2.08
2023-03-12T21:39:35.613Z,2.13
2023-03-12T21:42:02.214Z,2.40
2023-03-12T21:44:28.817Z,2.22
2023-03-12T21:46:55.551Z,2.83
2023-03-12T21:49:22.164Z,2.58
2023-03-12T21:51:48.825Z,2.28
2023-03-12T21:54:15.340Z,2.13
2023-03-12T21:56:41.884Z,1.85
2023-03-12T21:59:08.637Z,1.85
2023-03-12T22:01:35.277Z,2.13
2023-03-12T22:04:01.884Z,1.65
2023-03-12T22:06:28.473Z,2.08
2023-03-12T22:08:55.178Z,2.15
2023-03-12T22:11:22.192Z,2.65
2023-03-12T22:13:48.757Z,1.83
2023-03-12T22:16:15.862Z,1.40
2023-03-12T22:18:44.302Z,1.70
2023-03-12T22:21:19.933Z,1.52
2023-03-12T22:23:46.527Z,1.67
2023-03-12T22:26:13.157Z,2.20
2023-03-12T22:28:40.267Z,1.33
2023-03-12T22:31:08.874Z,2.05
2023-03-12T22:33:36.271Z,2.03
2023-03-12T22:36:08.444Z,2.00
2023-03-12T22:38:35.803Z,2.25
2023-03-12T22:41:12.432Z,1.52
2023-03-12T22:43:39.107Z,1.85
2023-03-12T22:46:05.592Z,1.33
2023-03-12T22:48:32.580Z,1.67
2023-03-12T22:50:59.123Z,1.70
2023-03-12T22:53:25.653Z,1.92
2023-03-12T22:55:59.777Z,1.50
2023-03-12T22:58:26.983Z,1.45
2023-03-12T23:01:09.584Z,1.30
2023-03-12T23:03:38.001Z,1.40
2023-03-12T23:06:09.381Z,2.08
2023-03-12T23:08:35.944Z,2.40
2023-03-12T23:11:04.306Z,1.50
2023-03-12T23:13:33.615Z,1.65
2023-03-12T23:16:08.556Z,1.35
2023-03-12T23:18:35.968Z,1.30
2023-03-12T23:21:05.595Z,1.60
2023-03-12T23:23:32.345Z,2.47
2023-03-12T23:26:00.350Z,2.20
2023-03-12T23:28:28.572Z,1.85
2023-03-12T23:30:57.940Z,1.90
2023-03-12T23:33:25.597Z,1.38
2023-03-12T23:36:00.712Z,2.20
2023-03-12T23:38:28.617Z,1.90
2023-03-12T23:41:18.748Z,2.45
2023-03-12T23:43:45.630Z,1.02
2023-03-12T23:46:13.642Z,1.88
2023-03-12T23:48:40.919Z,1.80
2023-03-12T23:51:12.912Z,2.10
2023-03-12T23:53:40.952Z,1.45
2023-03-12T23:56:10.550Z,1.88
2023-03-12T23:58:37.134Z,1.77
